Time;durP1;ratioP1;P1;durP2;ratioP2;P2;SDS_P1;SDS_P2;PMS_P1;PMS_P2;Temp;Humidity;BMP_temperature;BMP_pressure;BME280_temperature;BME280_humidity;BME280_pressure;Samples;Min_cycle;Max_cycle;Signal;HPM_P1;HPM_P2
2024/03/18 00:03:21;;;;;;;8.8;4.2;;;;;;;3.18;66.41;98960;;;;
2024/03/18 00:13:21;;;;;;;4.4;2;;;;;;;2.96;66.58;98950;;;;
2024/03/18 00:24:21;;;;;;;4.4;2;;;;;;;2.81;65.68;98946.666666667;;;;
2024/03/18 00:35:20;;;;;;;4.4;2;;;;;;;2.83;65.73;98931.666666667;;;;
2024/03/18 00:45:21;;;;;;;3.6;1.7;;;;;;;2.8;65.48;98930;;;;
2024/03/18 00:55:21;;;;;;;3.6;1.7;;;;;;;2.78;65.5;98928.333333333;;;;
2024/03/18 01:06:20;;;;;;;3.6;1.7;;;;;;;2.78;65.95;98923.333333333;;;;
2024/03/18 01:16:21;;;;;;;4.1;1.7;;;;;;;2.77;66.57;98906.666666667;;;;
2024/03/18 01:26:21;;;;;;;4.1;1.7;;;;;;;2.68;65.07;98901.666666667;;;;
2024/03/18 01:37:21;;;;;;;4.1;1.7;;;;;;;2.61;67.12;98900;;;;
2024/03/18 01:47:21;;;;;;;3.8;2.1;;;;;;;2.61;67.14;98900;;;;
2024/03/18 01:57:21;;;;;;;3.8;2.1;;;;;;;2.53;66.79;98896.666666667;;;;
2024/03/18 02:07:21;;;;;;;3.8;2.1;;;;;;;2.47;66.92;98906.666666667;;;;
2024/03/18 02:18:21;;;;;;;7.6;2.7;;;;;;;2.47;66.13;98908.333333333;;;;
2024/03/18 02:29:21;;;;;;;7.6;2.7;;;;;;;2.38;65.23;98903.333333333;;;;
2024/03/18 02:39:22;;;;;;;7.6;2.7;;;;;;;2.32;65.81;98900;;;;
2024/03/18 02:50:21;;;;;;;5;2.5;;;;;;;2.24;67.09;98891.666666667;;;;
2024/03/18 03:01:21;;;;;;;5;2.5;;;;;;;2.2;67.75;98881.666666667;;;;
2024/03/18 03:11:21;;;;;;;5.2;2.7;;;;;;;2.21;68.48;98880;;;;
2024/03/18 03:22:21;;;;;;;5.2;2.7;;;;;;;2.23;69.51;98878.333333333;;;;
2024/03/18 03:32:21;;;;;;;5.2;2.7;;;;;;;1.73;73.84;98896.666666667;;;;
2024/03/18 03:43:21;;;;;;;4.3;1.7;;;;;;;1.15;79.73;98906.666666667;;;;
2024/03/18 03:54:21;;;;;;;4.3;1.7;;;;;;;1.11;82.01;98895;;;;
2024/03/18 04:04:21;;;;;;;4.3;1.7;;;;;;;1.05;81.45;98913.333333333;;;;
2024/03/18 04:14:21;;;;;;;5;2.8;;;;;;;1.15;80.71;98916.666666667;;;;
2024/03/18 04:25:21;;;;;;;5;2.8;;;;;;;1.19;79.13;98908.333333333;;;;
2024/03/18 04:35:21;;;;;;;5;2.8;;;;;;;1.24;78.19;98911.666666667;;;;
2024/03/18 04:45:21;;;;;;;3.1;1.5;;;;;;;1.2;76.16;98916.666666667;;;;
2024/03/18 04:56:21;;;;;;;3.1;1.5;;;;;;;1.25;75.72;98915;;;;
2024/03/18 05:07:21;;;;;;;3.1;1.5;;;;;;;1.05;75.67;98916.666666667;;;;
2024/03/18 05:18:21;;;;;;;2.5;1;;;;;;;1.04;75.21;98910;;;;
2024/03/18 05:29:21;;;;;;;2.5;1;;;;;;;1.19;74.58;98928.333333333;;;;
2024/03/18 05:39:21;;;;;;;2.5;1;;;;;;;1.3;74.42;98935;;;;
2024/03/18 05:50:21;;;;;;;4.4;1.7;;;;;;;1.32;74.13;98941.666666667;;;;
2024/03/18 06:00:21;;;;;;;4.4;1.7;;;;;;;1.47;73.65;98941.666666667;;;;
2024/03/18 06:11:21;;;;;;;4.2;2.3;;;;;;;1.61;73.34;98936.666666667;;;;
2024/03/18 06:21:24;;;;;;;4.2;2.3;;;;;;;1.53;72.64;98941.666666667;;;;
2024/03/18 06:32:21;;;;;;;4.2;2.3;;;;;;;1.69;72.32;98950;;;;
2024/03/18 06:43:21;;;;;;;3.7;2.4;;;;;;;1.74;71.95;98945;;;;
2024/03/18 06:54:21;;;;;;;3.7;2.4;;;;;;;2.1;69.99;98938.333333333;;;;
2024/03/18 07:05:21;;;;;;;3.7;2.4;;;;;;;2.41;68.02;98936.666666667;;;;
2024/03/18 07:15:21;;;;;;;5.3;2.4;;;;;;;2.37;66.15;98928.333333333;;;;
2024/03/18 07:25:21;;;;;;;5.3;2.4;;;;;;;2.22;65.55;98940;;;;
2024/03/18 07:35:21;;;;;;;5.3;2.4;;;;;;;1.96;65.52;98946.666666667;;;;
2024/03/18 07:46:21;;;;;;;3.5;1.6;;;;;;;2.18;62.38;98946.666666667;;;;
2024/03/18 07:57:21;;;;;;;3.5;1.6;;;;;;;2.74;61.52;98951.666666667;;;;
2024/03/18 08:08:21;;;;;;;3.5;1.6;;;;;;;2.87;62.25;98946.666666667;;;;
2024/03/18 08:18:21;;;;;;;2.3;1;;;;;;;2.84;62.01;98941.666666667;;;;
2024/03/18 08:29:21;;;;;;;2.3;1;;;;;;;2.93;60.58;98941.666666667;;;;
2024/03/18 08:40:21;;;;;;;2.7;1.4;;;;;;;3.22;60.99;98936.666666667;;;;
2024/03/18 08:51:21;;;;;;;2.7;1.4;;;;;;;3.7;59.23;98930;;;;
2024/03/18 09:02:21;;;;;;;2.7;1.4;;;;;;;3.95;59.04;98925;;;;
2024/03/18 09:13:21;;;;;;;2.8;1.4;;;;;;;4.02;57.83;98923.333333333;;;;
2024/03/18 09:23:21;;;;;;;2.8;1.4;;;;;;;4.09;57.3;98926.666666667;;;;
2024/03/18 09:34:21;;;;;;;2.8;1.4;;;;;;;4.36;56.61;98923.333333333;;;;
2024/03/18 09:44:21;;;;;;;3.5;2.1;;;;;;;4.51;56.34;98915;;;;
2024/03/18 09:54:21;;;;;;;3.5;2.1;;;;;;;4.59;55.98;98903.333333333;;;;
2024/03/18 10:05:21;;;;;;;3.5;2.1;;;;;;;5.19;55.64;98898.333333333;;;;
2024/03/18 10:15:21;;;;;;;3.5;1.9;;;;;;;5.21;53.6;98895;;;;
2024/03/18 10:25:21;;;;;;;3.5;1.9;;;;;;;4.99;55.54;98893.333333333;;;;
2024/03/18 10:35:23;;;;;;;3.5;1.9;;;;;;;5.19;54.37;98890;;;;
2024/03/18 10:46:21;;;;;;;4.1;1.8;;;;;;;5.14;53.44;98893.333333333;;;;
2024/03/18 10:57:21;;;;;;;4.1;1.8;;;;;;;5.26;52.94;98881.666666667;;;;
2024/03/18 11:07:21;;;;;;;4.1;1.8;;;;;;;5.49;51.41;98873.333333333;;;;
2024/03/18 11:18:21;;;;;;;5.3;1.9;;;;;;;5.34;53.36;98863.333333333;;;;
2024/03/18 11:29:21;;;;;;;5.3;1.9;;;;;;;5.19;54.82;98858.333333333;;;;
2024/03/18 11:40:21;;;;;;;3.7;2.3;;;;;;;5.18;55.18;98855;;;;
2024/03/18 11:51:21;;;;;;;3.7;2.3;;;;;;;5.22;55.01;98843.333333333;;;;
2024/03/18 12:01:21;;;;;;;3.7;2.3;;;;;;;5.1;54.35;98838.333333333;;;;
2024/03/18 12:12:21;;;;;;;5.6;2.9;;;;;;;4.79;56.44;98831.666666667;;;;
2024/03/18 12:33:21;;;;;;;5.6;2.9;;;;;;;4.92;56.68;98825;;;;
2024/03/18 12:44:21;;;;;;;7.8;4.5;;;;;;;4.6;58.72;98821.666666667;;;;
2024/03/18 12:54:21;;;;;;;7.8;4.5;;;;;;;4.41;58.64;98825;;;;
2024/03/18 13:04:21;;;;;;;7.8;4.5;;;;;;;4.41;58.18;98823.333333333;;;;
2024/03/18 13:15:22;;;;;;;7.9;4.4;;;;;;;4.22;57.66;98821.666666667;;;;
2024/03/18 13:26:21;;;;;;;7.9;4.4;;;;;;;4.26;58.17;98820;;;;
2024/03/18 13:37:22;;;;;;;7.9;4.4;;;;;;;4.3;58.05;98830;;;;
2024/03/18 13:47:21;;;;;;;8.6;4.6;;;;;;;4.48;57.21;98831.666666667;;;;
2024/03/18 13:58:21;;;;;;;8.6;4.6;;;;;;;4.52;58.94;98826.666666667;;;;
2024/03/18 14:09:22;;;;;;;8.6;4.6;;;;;;;4.68;55.9;98818.333333333;;;;
2024/03/18 14:19:21;;;;;;;8.5;5.1;;;;;;;4.68;59.19;98820;;;;
2024/03/18 14:30:22;;;;;;;8.5;5.1;;;;;;;4.79;58.82;98821.666666667;;;;
2024/03/18 14:41:21;;;;;;;8.6;4.7;;;;;;;5.32;60.04;98813.333333333;;;;
2024/03/18 14:51:21;;;;;;;8.6;4.7;;;;;;;5.63;57.14;98810;;;;
2024/03/18 15:02:21;;;;;;;8.6;4.7;;;;;;;5.34;57.17;98813.333333333;;;;
2024/03/18 15:12:21;;;;;;;9.2;5.3;;;;;;;5.4;56.02;98813.333333333;;;;
2024/03/18 15:22:21;;;;;;;9.2;5.3;;;;;;;5.47;55.26;98815;;;;
2024/03/18 15:33:21;;;;;;;9.2;5.3;;;;;;;5;56.73;98821.666666667;;;;
2024/03/18 15:43:21;;;;;;;7.1;3.8;;;;;;;4.59;58.23;98875;;;;
2024/03/18 15:53:21;;;;;;;7.1;3.8;;;;;;;4.15;62.68;98860;;;;
2024/03/18 16:03:21;;;;;;;7.1;3.8;;;;;;;3.95;63.72;98835;;;;
2024/03/18 16:14:22;;;;;;;9.9;5.5;;;;;;;3.51;65.8;98837.5;;;;
2024/03/18 16:25:21;;;;;;;9.9;5.5;;;;;;;3.48;66.06;98842.5;;;;
2024/03/18 16:36:22;;;;;;;9.9;5.5;;;;;;;3.42;66.22;98847.5;;;;
2024/03/18 16:47:21;;;;;;;9.3;4.5;;;;;;;3.27;67.51;98850;;;;
2024/03/18 16:58:21;;;;;;;9.3;4.5;;;;;;;3.25;67.41;98862.5;;;;
2024/03/18 17:08:21;;;;;;;9.3;4.5;;;;;;;3.3;67.2;98862.5;;;;
2024/03/18 17:18:21;;;;;;;11.8;5.4;;;;;;;3.25;66.73;98870;;;;
2024/03/18 17:29:21;;;;;;;11.8;5.4;;;;;;;3.21;66.68;98877.5;;;;
2024/03/18 17:39:21;;;;;;;15.4;8.5;;;;;;;3.1;68.17;98882.5;;;;
2024/03/18 17:50:21;;;;;;;15.4;8.5;;;;;;;2.94;70.97;98890;;;;
2024/03/18 18:00:21;;;;;;;15.4;8.5;;;;;;;2.9;71.79;98897.5;;;;
2024/03/18 18:11:21;;;;;;;18.8;8;;;;;;;2.89;72.21;98905;;;;
2024/03/18 18:21:21;;;;;;;18.8;8;;;;;;;2.91;72.13;98910;;;;
2024/03/18 18:32:21;;;;;;;18.8;8;;;;;;;2.91;72.07;98910;;;;
2024/03/18 18:43:22;;;;;;;15.4;8.2;;;;;;;2.89;72.39;98931.666666667;;;;
2024/03/18 18:53:21;;;;;;;15.4;8.2;;;;;;;2.88;71.74;98928.333333333;;;;
2024/03/18 19:03:21;;;;;;;15.4;8.2;;;;;;;2.88;71.96;98935;;;;
2024/03/18 19:14:21;;;;;;;15.4;9.1;;;;;;;2.83;73.12;98935;;;;
2024/03/18 19:25:21;;;;;;;15.4;9.1;;;;;;;2.86;73.35;98936.666666667;;;;
2024/03/18 19:36:21;;;;;;;15.4;9.1;;;;;;;2.92;73.78;98940;;;;
2024/03/18 19:47:21;;;;;;;16.8;9.2;;;;;;;2.95;74.52;98943.333333333;;;;
2024/03/18 19:57:21;;;;;;;16.8;9.2;;;;;;;2.7;76.14;98945;;;;
2024/03/18 20:08:21;;;;;;;16.8;9.2;;;;;;;2.66;76.85;98953.333333333;;;;
2024/03/18 20:18:21;;;;;;;21.3;11.8;;;;;;;2.69;76.92;98955;;;;
2024/03/18 20:29:21;;;;;;;21.3;11.8;;;;;;;2.78;76.34;98956.666666667;;;;
2024/03/18 20:39:21;;;;;;;24.5;12.7;;;;;;;2.74;76.59;98953.333333333;;;;
2024/03/18 20:49:21;;;;;;;24.5;12.7;;;;;;;2.82;76.76;98956.666666667;;;;
2024/03/18 21:00:22;;;;;;;24.5;12.7;;;;;;;2.87;76.4;98960;;;;
2024/03/18 21:11:21;;;;;;;22.6;12.7;;;;;;;2.91;76.32;98960;;;;
2024/03/18 21:22:21;;;;;;;22.6;12.7;;;;;;;2.96;75.76;98960;;;;
2024/03/18 21:33:21;;;;;;;22.6;12.7;;;;;;;3.04;75.63;98961.666666667;;;;
2024/03/18 21:43:21;;;;;;;19.3;10.9;;;;;;;2.98;75.71;98960;;;;
2024/03/18 21:54:21;;;;;;;19.3;10.9;;;;;;;2.9;75.78;98960;;;;
2024/03/18 22:04:21;;;;;;;19.3;10.9;;;;;;;2.96;75.93;98956.666666667;;;;
2024/03/18 22:14:21;;;;;;;17.7;10.4;;;;;;;2.96;75.98;98960;;;;
2024/03/18 22:25:21;;;;;;;17.7;10.4;;;;;;;2.81;75.86;98971.666666667;;;;
2024/03/18 22:36:21;;;;;;;17.7;10.4;;;;;;;2.84;75.65;98965;;;;
2024/03/18 22:47:21;;;;;;;17.4;9.2;;;;;;;2.88;75.6;98960;;;;
2024/03/18 22:57:21;;;;;;;17.4;9.2;;;;;;;2.91;75.64;98963.333333333;;;;
2024/03/18 23:08:21;;;;;;;10.8;5.9;;;;;;;2.83;75.96;98971.666666667;;;;
2024/03/18 23:19:21;;;;;;;10.8;5.9;;;;;;;2.79;75.91;98976.666666667;;;;
2024/03/18 23:29:22;;;;;;;10.8;5.9;;;;;;;2.77;76.16;98983.333333333;;;;
2024/03/18 23:39:21;;;;;;;11.4;6;;;;;;;2.7;76.24;98983.333333333;;;;
2024/03/18 23:50:21;;;;;;;11.4;6;;;;;;;2.75;76.14;98981.666666667;;;;
